sensor_id;sensor_type;location;lat;lon;timestamp;P1;P2;P0
83024;PMS5003;72958;53.326;-1.496;2024-03-29T00:00:57;2;2;
83024;PMS5003;72958;53.326;-1.496;2024-03-29T00:05:42;1;1;
83024;PMS5003;72958;53.326;-1.496;2024-03-29T00:08:11;3;1;
83024;PMS5003;72958;53.326;-1.496;2024-03-29T00:10:41;0;0;
83024;PMS5003;72958;53.326;-1.496;2024-03-29T00:13:26;0;0;
83024;PMS5003;72958;53.326;-1.496;2024-03-29T00:15:59;3;2;
83024;PMS5003;72958;53.326;-1.496;2024-03-29T00:18:47;4;4;
83024;PMS5003;72958;53.326;-1.496;2024-03-29T00:21:14;1;1;
83024;PMS5003;72958;53.326;-1.496;2024-03-29T00:23:59;3;3;
83024;PMS5003;72958;53.326;-1.496;2024-03-29T00:26:40;2;2;
83024;PMS5003;72958;53.326;-1.496;2024-03-29T00:29:18;1;1;
83024;PMS5003;72958;53.326;-1.496;2024-03-29T00:31:56;3;3;
83024;PMS5003;72958;53.326;-1.496;2024-03-29T00:34:26;3;2;
83024;PMS5003;72958;53.326;-1.496;2024-03-29T00:36:53;1;1;
83024;PMS5003;72958;53.326;-1.496;2024-03-29T00:39:40;2;2;
83024;PMS5003;72958;53.326;-1.496;2024-03-29T00:42:25;1;1;
83024;PMS5003;72958;53.326;-1.496;2024-03-29T00:45:07;1;1;
83024;PMS5003;72958;53.326;-1.496;2024-03-29T00:48:01;1;1;
83024;PMS5003;72958;53.326;-1.496;2024-03-29T00:50:29;0;0;
83024;PMS5003;72958;53.326;-1.496;2024-03-29T00:53:04;0;0;
83024;PMS5003;72958;53.326;-1.496;2024-03-29T00:55:35;0;0;
83024;PMS5003;72958;53.326;-1.496;2024-03-29T00:58:23;0;0;
83024;PMS5003;72958;53.326;-1.496;2024-03-29T01:01:27;1;1;
83024;PMS5003;72958;53.326;-1.496;2024-03-29T01:04:11;0;0;
83024;PMS5003;72958;53.326;-1.496;2024-03-29T01:06:36;0;0;
83024;PMS5003;72958;53.326;-1.496;2024-03-29T01:09:42;0;0;
83024;PMS5003;72958;53.326;-1.496;2024-03-29T01:12:14;0;0;
83024;PMS5003;72958;53.326;-1.496;2024-03-29T01:14:57;1;1;
83024;PMS5003;72958;53.326;-1.496;2024-03-29T01:17:25;0;0;
83024;PMS5003;72958;53.326;-1.496;2024-03-29T01:19:57;1;1;
83024;PMS5003;72958;53.326;-1.496;2024-03-29T01:22:30;2;2;
83024;PMS5003;72958;53.326;-1.496;2024-03-29T01:24:56;1;1;
83024;PMS5003;72958;53.326;-1.496;2024-03-29T01:27:33;0;0;
83024;PMS5003;72958;53.326;-1.496;2024-03-29T01:30:41;1;1;
83024;PMS5003;72958;53.326;-1.496;2024-03-29T01:33:39;3;1;
83024;PMS5003;72958;53.326;-1.496;2024-03-29T01:36:17;0;0;
83024;PMS5003;72958;53.326;-1.496;2024-03-29T01:39:11;2;2;
83024;PMS5003;72958;53.326;-1.496;2024-03-29T01:41:41;1;1;
83024;PMS5003;72958;53.326;-1.496;2024-03-29T01:44:09;1;1;
83024;PMS5003;72958;53.326;-1.496;2024-03-29T01:46:37;1;1;
83024;PMS5003;72958;53.326;-1.496;2024-03-29T01:49:08;1;1;
83024;PMS5003;72958;53.326;-1.496;2024-03-29T01:52:24;5;4;
83024;PMS5003;72958;53.326;-1.496;2024-03-29T01:54:50;2;1;
83024;PMS5003;72958;53.326;-1.496;2024-03-29T01:57:24;2;2;
83024;PMS5003;72958;53.326;-1.496;2024-03-29T02:00:06;3;3;
83024;PMS5003;72958;53.326;-1.496;2024-03-29T02:02:42;1;1;
83024;PMS5003;72958;53.326;-1.496;2024-03-29T02:05:22;3;2;
83024;PMS5003;72958;53.326;-1.496;2024-03-29T02:08:36;5;4;
83024;PMS5003;72958;53.326;-1.496;2024-03-29T02:11:07;0;0;
83024;PMS5003;72958;53.326;-1.496;2024-03-29T02:13:37;0;0;
83024;PMS5003;72958;53.326;-1.496;2024-03-29T02:16:06;2;2;
83024;PMS5003;72958;53.326;-1.496;2024-03-29T02:19:14;1;1;
83024;PMS5003;72958;53.326;-1.496;2024-03-29T02:21:49;2;2;
83024;PMS5003;72958;53.326;-1.496;2024-03-29T02:24:34;2;2;
83024;PMS5003;72958;53.326;-1.496;2024-03-29T02:27:25;2;2;
83024;PMS5003;72958;53.326;-1.496;2024-03-29T02:30:07;1;1;
83024;PMS5003;72958;53.326;-1.496;2024-03-29T02:33:23;1;1;
83024;PMS5003;72958;53.326;-1.496;2024-03-29T02:36:22;3;3;
83024;PMS5003;72958;53.326;-1.496;2024-03-29T02:38:49;1;1;
83024;PMS5003;72958;53.326;-1.496;2024-03-29T02:41:18;1;1;
83024;PMS5003;72958;53.326;-1.496;2024-03-29T02:44:57;1;1;
83024;PMS5003;72958;53.326;-1.496;2024-03-29T02:47:31;2;2;
83024;PMS5003;72958;53.326;-1.496;2024-03-29T02:49:58;3;3;
83024;PMS5003;72958;53.326;-1.496;2024-03-29T02:52:25;1;1;
83024;PMS5003;72958;53.326;-1.496;2024-03-29T02:54:52;3;3;
83024;PMS5003;72958;53.326;-1.496;2024-03-29T02:57:25;0;0;
83024;PMS5003;72958;53.326;-1.496;2024-03-29T03:00:01;1;1;
83024;PMS5003;72958;53.326;-1.496;2024-03-29T03:02:28;1;1;
83024;PMS5003;72958;53.326;-1.496;2024-03-29T03:05:18;1;1;
83024;PMS5003;72958;53.326;-1.496;2024-03-29T03:08:02;0;0;
83024;PMS5003;72958;53.326;-1.496;2024-03-29T03:13:35;0;0;
83024;PMS5003;72958;53.326;-1.496;2024-03-29T03:16:07;1;1;
83024;PMS5003;72958;53.326;-1.496;2024-03-29T03:18:47;1;1;
83024;PMS5003;72958;53.326;-1.496;2024-03-29T03:21:25;4;2;
83024;PMS5003;72958;53.326;-1.496;2024-03-29T03:23:59;0;0;
83024;PMS5003;72958;53.326;-1.496;2024-03-29T03:27:25;2;2;
83024;PMS5003;72958;53.326;-1.496;2024-03-29T03:29:52;1;1;
83024;PMS5003;72958;53.326;-1.496;2024-03-29T03:32:52;3;1;
83024;PMS5003;72958;53.326;-1.496;2024-03-29T03:35:20;1;1;
83024;PMS5003;72958;53.326;-1.496;2024-03-29T03:38:20;2;2;
83024;PMS5003;72958;53.326;-1.496;2024-03-29T03:40:59;1;1;
83024;PMS5003;72958;53.326;-1.496;2024-03-29T03:44:32;1;1;
83024;PMS5003;72958;53.326;-1.496;2024-03-29T03:47:05;0;0;
83024;PMS5003;72958;53.326;-1.496;2024-03-29T03:49:44;0;0;
83024;PMS5003;72958;53.326;-1.496;2024-03-29T03:52:11;1;1;
83024;PMS5003;72958;53.326;-1.496;2024-03-29T03:55:00;0;0;
83024;PMS5003;72958;53.326;-1.496;2024-03-29T03:57:32;1;1;
83024;PMS5003;72958;53.326;-1.496;2024-03-29T03:59:59;1;1;
83024;PMS5003;72958;53.326;-1.496;2024-03-29T04:02:38;2;2;
83024;PMS5003;72958;53.326;-1.496;2024-03-29T04:05:12;2;2;
83024;PMS5003;72958;53.326;-1.496;2024-03-29T04:07:54;1;0;
83024;PMS5003;72958;53.326;-1.496;2024-03-29T04:11:32;1;1;
83024;PMS5003;72958;53.326;-1.496;2024-03-29T04:14:17;1;1;
83024;PMS5003;72958;53.326;-1.496;2024-03-29T04:16:48;1;1;
83024;PMS5003;72958;53.326;-1.496;2024-03-29T04:19:15;2;2;
83024;PMS5003;72958;53.326;-1.496;2024-03-29T04:21:41;5;5;
83024;PMS5003;72958;53.326;-1.496;2024-03-29T04:24:14;0;0;
83024;PMS5003;72958;53.326;-1.496;2024-03-29T04:27:00;1;1;
83024;PMS5003;72958;53.326;-1.496;2024-03-29T04:29:45;2;2;
83024;PMS5003;72958;53.326;-1.496;2024-03-29T04:32:11;0;0;
83024;PMS5003;72958;53.326;-1.496;2024-03-29T04:34:42;1;1;
83024;PMS5003;72958;53.326;-1.496;2024-03-29T04:37:56;0;0;
83024;PMS5003;72958;53.326;-1.496;2024-03-29T04:40:45;0;0;
83024;PMS5003;72958;53.326;-1.496;2024-03-29T04:43:20;0;0;
83024;PMS5003;72958;53.326;-1.496;2024-03-29T04:46:01;0;0;
83024;PMS5003;72958;53.326;-1.496;2024-03-29T04:48:42;1;1;
83024;PMS5003;72958;53.326;-1.496;2024-03-29T04:51:54;1;1;
83024;PMS5003;72958;53.326;-1.496;2024-03-29T04:54:22;1;1;
83024;PMS5003;72958;53.326;-1.496;2024-03-29T04:57:25;1;1;
83024;PMS5003;72958;53.326;-1.496;2024-03-29T04:59:55;1;1;
83024;PMS5003;72958;53.326;-1.496;2024-03-29T05:02:43;1;1;
83024;PMS5003;72958;53.326;-1.496;2024-03-29T05:05:09;2;1;
83024;PMS5003;72958;53.326;-1.496;2024-03-29T05:08:11;1;1;
83024;PMS5003;72958;53.326;-1.496;2024-03-29T05:10:52;1;1;
83024;PMS5003;72958;53.326;-1.496;2024-03-29T05:13:22;3;3;
83024;PMS5003;72958;53.326;-1.496;2024-03-29T05:16:16;0;0;
83024;PMS5003;72958;53.326;-1.496;2024-03-29T05:19:01;1;1;
83024;PMS5003;72958;53.326;-1.496;2024-03-29T05:21:40;1;1;
83024;PMS5003;72958;53.326;-1.496;2024-03-29T05:24:36;3;3;
83024;PMS5003;72958;53.326;-1.496;2024-03-29T05:27:41;0;0;
83024;PMS5003;72958;53.326;-1.496;2024-03-29T05:30:13;2;2;
83024;PMS5003;72958;53.326;-1.496;2024-03-29T05:33:07;2;2;
83024;PMS5003;72958;53.326;-1.496;2024-03-29T05:35:34;1;1;
83024;PMS5003;72958;53.326;-1.496;2024-03-29T05:38:07;2;2;
83024;PMS5003;72958;53.326;-1.496;2024-03-29T05:40:51;3;3;
83024;PMS5003;72958;53.326;-1.496;2024-03-29T05:44:19;5;5;
83024;PMS5003;72958;53.326;-1.496;2024-03-29T05:47:13;5;5;
83024;PMS5003;72958;53.326;-1.496;2024-03-29T05:49:46;6;6;
83024;PMS5003;72958;53.326;-1.496;2024-03-29T05:52:19;7;5;
83024;PMS5003;72958;53.326;-1.496;2024-03-29T05:54:47;7;6;
83024;PMS5003;72958;53.326;-1.496;2024-03-29T05:58:20;5;5;
83024;PMS5003;72958;53.326;-1.496;2024-03-29T06:00:55;7;6;
83024;PMS5003;72958;53.326;-1.496;2024-03-29T06:03:42;6;6;
83024;PMS5003;72958;53.326;-1.496;2024-03-29T06:06:18;10;10;
83024;PMS5003;72958;53.326;-1.496;2024-03-29T06:08:50;3;3;
83024;PMS5003;72958;53.326;-1.496;2024-03-29T06:11:44;2;2;
83024;PMS5003;72958;53.326;-1.496;2024-03-29T06:14:50;7;7;
83024;PMS5003;72958;53.326;-1.496;2024-03-29T06:18:38;3;3;
83024;PMS5003;72958;53.326;-1.496;2024-03-29T06:21:15;5;5;
83024;PMS5003;72958;53.326;-1.496;2024-03-29T06:24:43;6;6;
83024;PMS5003;72958;53.326;-1.496;2024-03-29T06:27:21;5;5;
83024;PMS5003;72958;53.326;-1.496;2024-03-29T06:30:11;5;5;
83024;PMS5003;72958;53.326;-1.496;2024-03-29T06:32:45;1;1;
83024;PMS5003;72958;53.326;-1.496;2024-03-29T06:36:11;3;3;
83024;PMS5003;72958;53.326;-1.496;2024-03-29T06:38:37;5;5;
83024;PMS5003;72958;53.326;-1.496;2024-03-29T06:41:11;2;2;
83024;PMS5003;72958;53.326;-1.496;2024-03-29T06:43:46;5;5;
83024;PMS5003;72958;53.326;-1.496;2024-03-29T06:46:33;5;5;
83024;PMS5003;72958;53.326;-1.496;2024-03-29T06:49:19;5;5;
83024;PMS5003;72958;53.326;-1.496;2024-03-29T06:51:45;9;7;
83024;PMS5003;72958;53.326;-1.496;2024-03-29T06:54:17;6;6;
83024;PMS5003;72958;53.326;-1.496;2024-03-29T06:56:44;0;0;
83024;PMS5003;72958;53.326;-1.496;2024-03-29T06:59:09;4;4;
83024;PMS5003;72958;53.326;-1.496;2024-03-29T07:01:48;0;0;
83024;PMS5003;72958;53.326;-1.496;2024-03-29T07:05:18;4;4;
83024;PMS5003;72958;53.326;-1.496;2024-03-29T07:07:44;5;5;
83024;PMS5003;72958;53.326;-1.496;2024-03-29T07:10:18;9;3;
83024;PMS5003;72958;53.326;-1.496;2024-03-29T07:12:57;0;0;
83024;PMS5003;72958;53.326;-1.496;2024-03-29T07:16:07;1;1;
83024;PMS5003;72958;53.326;-1.496;2024-03-29T07:18:45;5;3;
83024;PMS5003;72958;53.326;-1.496;2024-03-29T07:21:15;3;3;
83024;PMS5003;72958;53.326;-1.496;2024-03-29T07:23:42;3;3;
83024;PMS5003;72958;53.326;-1.496;2024-03-29T07:26:27;2;2;
83024;PMS5003;72958;53.326;-1.496;2024-03-29T07:30:21;5;5;
83024;PMS5003;72958;53.326;-1.496;2024-03-29T07:33:13;4;4;
83024;PMS5003;72958;53.326;-1.496;2024-03-29T07:36:00;4;4;
83024;PMS5003;72958;53.326;-1.496;2024-03-29T07:38:49;4;4;
83024;PMS5003;72958;53.326;-1.496;2024-03-29T07:41:42;1;1;
83024;PMS5003;72958;53.326;-1.496;2024-03-29T07:44:15;3;3;
83024;PMS5003;72958;53.326;-1.496;2024-03-29T07:47:00;3;3;
83024;PMS5003;72958;53.326;-1.496;2024-03-29T07:49:46;3;3;
83024;PMS5003;72958;53.326;-1.496;2024-03-29T07:52:36;2;2;
83024;PMS5003;72958;53.326;-1.496;2024-03-29T07:55:13;3;3;
83024;PMS5003;72958;53.326;-1.496;2024-03-29T07:58:36;3;3;
83024;PMS5003;72958;53.326;-1.496;2024-03-29T08:01:24;4;4;
83024;PMS5003;72958;53.326;-1.496;2024-03-29T08:04:04;3;3;
83024;PMS5003;72958;53.326;-1.496;2024-03-29T08:07:07;3;3;
83024;PMS5003;72958;53.326;-1.496;2024-03-29T08:09:40;2;2;
83024;PMS5003;72958;53.326;-1.496;2024-03-29T08:12:28;2;2;
83024;PMS5003;72958;53.326;-1.496;2024-03-29T08:15:18;1;1;
83024;PMS5003;72958;53.326;-1.496;2024-03-29T08:19:06;4;4;
83024;PMS5003;72958;53.326;-1.496;2024-03-29T08:21:58;4;4;
83024;PMS5003;72958;53.326;-1.496;2024-03-29T08:25:10;2;2;
83024;PMS5003;72958;53.326;-1.496;2024-03-29T08:27:44;4;4;
83024;PMS5003;72958;53.326;-1.496;2024-03-29T08:30:26;5;3;
83024;PMS5003;72958;53.326;-1.496;2024-03-29T08:33:18;2;2;
83024;PMS5003;72958;53.326;-1.496;2024-03-29T08:36:01;3;3;
83024;PMS5003;72958;53.326;-1.496;2024-03-29T08:39:06;0;0;
83024;PMS5003;72958;53.326;-1.496;2024-03-29T08:41:38;5;5;
83024;PMS5003;72958;53.326;-1.496;2024-03-29T08:44:18;2;2;
83024;PMS5003;72958;53.326;-1.496;2024-03-29T08:46:47;4;4;
83024;PMS5003;72958;53.326;-1.496;2024-03-29T08:50:10;1;1;
83024;PMS5003;72958;53.326;-1.496;2024-03-29T08:52:55;2;2;
83024;PMS5003;72958;53.326;-1.496;2024-03-29T08:55:29;2;2;
83024;PMS5003;72958;53.326;-1.496;2024-03-29T08:58:20;2;2;
83024;PMS5003;72958;53.326;-1.496;2024-03-29T09:00:53;1;1;
83024;PMS5003;72958;53.326;-1.496;2024-03-29T09:03:28;0;0;
83024;PMS5003;72958;53.326;-1.496;2024-03-29T09:05:56;2;2;
83024;PMS5003;72958;53.326;-1.496;2024-03-29T09:08:23;1;1;
83024;PMS5003;72958;53.326;-1.496;2024-03-29T09:10:58;3;3;
83024;PMS5003;72958;53.326;-1.496;2024-03-29T09:13:40;1;1;
83024;PMS5003;72958;53.326;-1.496;2024-03-29T09:17:11;2;2;
83024;PMS5003;72958;53.326;-1.496;2024-03-29T09:19:45;3;2;
83024;PMS5003;72958;53.326;-1.496;2024-03-29T09:22:11;1;1;
83024;PMS5003;72958;53.326;-1.496;2024-03-29T09:24:41;0;0;
83024;PMS5003;72958;53.326;-1.496;2024-03-29T09:27:35;0;0;
83024;PMS5003;72958;53.326;-1.496;2024-03-29T09:30:57;1;1;
83024;PMS5003;72958;53.326;-1.496;2024-03-29T09:33:30;0;0;
83024;PMS5003;72958;53.326;-1.496;2024-03-29T09:36:44;1;1;
83024;PMS5003;72958;53.326;-1.496;2024-03-29T09:39:53;1;1;
83024;PMS5003;72958;53.326;-1.496;2024-03-29T09:43:26;0;0;
83024;PMS5003;72958;53.326;-1.496;2024-03-29T09:45:52;2;2;
83024;PMS5003;72958;53.326;-1.496;2024-03-29T09:50:12;0;0;
83024;PMS5003;72958;53.326;-1.496;2024-03-29T09:53:29;0;0;
83024;PMS5003;72958;53.326;-1.496;2024-03-29T09:55:57;0;0;
83024;PMS5003;72958;53.326;-1.496;2024-03-29T09:58:29;1;1;
83024;PMS5003;72958;53.326;-1.496;2024-03-29T10:02:00;0;0;
83024;PMS5003;72958;53.326;-1.496;2024-03-29T10:04:27;0;0;
83024;PMS5003;72958;53.326;-1.496;2024-03-29T10:07:26;0;0;
83024;PMS5003;72958;53.326;-1.496;2024-03-29T10:10:05;0;0;
83024;PMS5003;72958;53.326;-1.496;2024-03-29T10:14:02;1;1;
83024;PMS5003;72958;53.326;-1.496;2024-03-29T10:17:09;0;0;
83024;PMS5003;72958;53.326;-1.496;2024-03-29T10:19:38;0;0;
83024;PMS5003;72958;53.326;-1.496;2024-03-29T10:22:18;0;0;
83024;PMS5003;72958;53.326;-1.496;2024-03-29T10:25:07;0;0;
83024;PMS5003;72958;53.326;-1.496;2024-03-29T10:27:52;0;0;
83024;PMS5003;72958;53.326;-1.496;2024-03-29T10:31:24;1;1;
83024;PMS5003;72958;53.326;-1.496;2024-03-29T10:34:11;0;0;
83024;PMS5003;72958;53.326;-1.496;2024-03-29T10:36:41;0;0;
83024;PMS5003;72958;53.326;-1.496;2024-03-29T10:39:10;0;0;
83024;PMS5003;72958;53.326;-1.496;2024-03-29T10:41:42;0;0;
83024;PMS5003;72958;53.326;-1.496;2024-03-29T10:44:38;0;0;
83024;PMS5003;72958;53.326;-1.496;2024-03-29T10:47:24;0;0;
83024;PMS5003;72958;53.326;-1.496;2024-03-29T10:49:57;0;0;
83024;PMS5003;72958;53.326;-1.496;2024-03-29T10:52:27;0;0;
83024;PMS5003;72958;53.326;-1.496;2024-03-29T10:55:07;0;0;
83024;PMS5003;72958;53.326;-1.496;2024-03-29T10:57:41;0;0;
83024;PMS5003;72958;53.326;-1.496;2024-03-29T11:00:37;0;0;
83024;PMS5003;72958;53.326;-1.496;2024-03-29T11:03:44;0;0;
83024;PMS5003;72958;53.326;-1.496;2024-03-29T11:06:51;1;1;
83024;PMS5003;72958;53.326;-1.496;2024-03-29T11:09:56;0;0;
83024;PMS5003;72958;53.326;-1.496;2024-03-29T11:13:16;1;1;
83024;PMS5003;72958;53.326;-1.496;2024-03-29T11:15:44;0;0;
83024;PMS5003;72958;53.326;-1.496;2024-03-29T11:19:36;1;0;
83024;PMS5003;72958;53.326;-1.496;2024-03-29T11:22:21;1;1;
83024;PMS5003;72958;53.326;-1.496;2024-03-29T11:25:01;0;0;
83024;PMS5003;72958;53.326;-1.496;2024-03-29T11:28:04;0;0;
83024;PMS5003;72958;53.326;-1.496;2024-03-29T11:30:50;0;0;
83024;PMS5003;72958;53.326;-1.496;2024-03-29T11:33:44;3;0;
83024;PMS5003;72958;53.326;-1.496;2024-03-29T11:38:31;1;1;
83024;PMS5003;72958;53.326;-1.496;2024-03-29T11:41:04;2;0;
83024;PMS5003;72958;53.326;-1.496;2024-03-29T11:43:30;0;0;
83024;PMS5003;72958;53.326;-1.496;2024-03-29T11:46:50;0;0;
83024;PMS5003;72958;53.326;-1.496;2024-03-29T11:49:43;0;0;
83024;PMS5003;72958;53.326;-1.496;2024-03-29T11:52:11;1;0;
83024;PMS5003;72958;53.326;-1.496;2024-03-29T11:55:00;1;1;
83024;PMS5003;72958;53.326;-1.496;2024-03-29T11:59:01;2;1;
83024;PMS5003;72958;53.326;-1.496;2024-03-29T12:02:41;0;0;
83024;PMS5003;72958;53.326;-1.496;2024-03-29T12:06:08;0;0;
83024;PMS5003;72958;53.326;-1.496;2024-03-29T12:08:46;0;0;
83024;PMS5003;72958;53.326;-1.496;2024-03-29T12:11:22;0;0;
83024;PMS5003;72958;53.326;-1.496;2024-03-29T12:14:22;0;0;
83024;PMS5003;72958;53.326;-1.496;2024-03-29T12:17:26;1;1;
83024;PMS5003;72958;53.326;-1.496;2024-03-29T12:21:05;0;0;
83024;PMS5003;72958;53.326;-1.496;2024-03-29T12:23:32;1;1;
83024;PMS5003;72958;53.326;-1.496;2024-03-29T12:26:44;0;0;
83024;PMS5003;72958;53.326;-1.496;2024-03-29T12:29:24;0;0;
83024;PMS5003;72958;53.326;-1.496;2024-03-29T12:32:32;0;0;
83024;PMS5003;72958;53.326;-1.496;2024-03-29T12:35:18;0;0;
83024;PMS5003;72958;53.326;-1.496;2024-03-29T12:37:48;0;0;
83024;PMS5003;72958;53.326;-1.496;2024-03-29T12:40:13;0;0;
83024;PMS5003;72958;53.326;-1.496;2024-03-29T12:43:32;0;0;
83024;PMS5003;72958;53.326;-1.496;2024-03-29T12:46:03;0;0;
83024;PMS5003;72958;53.326;-1.496;2024-03-29T12:48:46;0;0;
83024;PMS5003;72958;53.326;-1.496;2024-03-29T12:53:24;0;0;
83024;PMS5003;72958;53.326;-1.496;2024-03-29T12:56:08;0;0;
83024;PMS5003;72958;53.326;-1.496;2024-03-29T12:58:38;0;0;
83024;PMS5003;72958;53.326;-1.496;2024-03-29T13:01:22;0;0;
83024;PMS5003;72958;53.326;-1.496;2024-03-29T13:04:15;0;0;
83024;PMS5003;72958;53.326;-1.496;2024-03-29T13:06:44;0;0;
83024;PMS5003;72958;53.326;-1.496;2024-03-29T13:09:56;0;0;
83024;PMS5003;72958;53.326;-1.496;2024-03-29T13:12:29;0;0;
83024;PMS5003;72958;53.326;-1.496;2024-03-29T13:15:02;0;0;
83024;PMS5003;72958;53.326;-1.496;2024-03-29T13:17:26;0;0;
83024;PMS5003;72958;53.326;-1.496;2024-03-29T13:20:35;0;0;
83024;PMS5003;72958;53.326;-1.496;2024-03-29T13:23:07;0;0;
83024;PMS5003;72958;53.326;-1.496;2024-03-29T13:25:38;1;1;
83024;PMS5003;72958;53.326;-1.496;2024-03-29T13:28:06;1;1;
83024;PMS5003;72958;53.326;-1.496;2024-03-29T13:32:06;3;0;
83024;PMS5003;72958;53.326;-1.496;2024-03-29T13:34:39;0;0;
83024;PMS5003;72958;53.326;-1.496;2024-03-29T13:37:51;1;1;
83024;PMS5003;72958;53.326;-1.496;2024-03-29T13:41:43;1;1;
83024;PMS5003;72958;53.326;-1.496;2024-03-29T13:44:08;1;0;
83024;PMS5003;72958;53.326;-1.496;2024-03-29T13:47:15;0;0;
83024;PMS5003;72958;53.326;-1.496;2024-03-29T13:50:10;0;0;
83024;PMS5003;72958;53.326;-1.496;2024-03-29T13:52:48;0;0;
83024;PMS5003;72958;53.326;-1.496;2024-03-29T13:55:37;0;0;
83024;PMS5003;72958;53.326;-1.496;2024-03-29T13:58:59;2;0;
83024;PMS5003;72958;53.326;-1.496;2024-03-29T14:01:42;0;0;
83024;PMS5003;72958;53.326;-1.496;2024-03-29T14:04:15;0;0;
83024;PMS5003;72958;53.326;-1.496;2024-03-29T14:07:33;0;0;
83024;PMS5003;72958;53.326;-1.496;2024-03-29T14:11:08;0;0;
83024;PMS5003;72958;53.326;-1.496;2024-03-29T14:13:33;0;0;
83024;PMS5003;72958;53.326;-1.496;2024-03-29T14:17:13;0;0;
83024;PMS5003;72958;53.326;-1.496;2024-03-29T14:19:42;0;0;
83024;PMS5003;72958;53.326;-1.496;2024-03-29T14:22:33;0;0;
83024;PMS5003;72958;53.326;-1.496;2024-03-29T14:25:20;0;0;
83024;PMS5003;72958;53.326;-1.496;2024-03-29T14:28:04;0;0;
83024;PMS5003;72958;53.326;-1.496;2024-03-29T14:30:29;2;0;
83024;PMS5003;72958;53.326;-1.496;2024-03-29T14:34:37;0;0;
83024;PMS5003;72958;53.326;-1.496;2024-03-29T14:37:07;1;1;
83024;PMS5003;72958;53.326;-1.496;2024-03-29T14:40:37;1;1;
83024;PMS5003;72958;53.326;-1.496;2024-03-29T14:44:26;0;0;
83024;PMS5003;72958;53.326;-1.496;2024-03-29T14:47:30;0;0;
83024;PMS5003;72958;53.326;-1.496;2024-03-29T14:50:05;0;0;
83024;PMS5003;72958;53.326;-1.496;2024-03-29T14:53:14;0;0;
83024;PMS5003;72958;53.326;-1.496;2024-03-29T14:56:04;0;0;
83024;PMS5003;72958;53.326;-1.496;2024-03-29T14:58:37;0;0;
83024;PMS5003;72958;53.326;-1.496;2024-03-29T15:01:22;0;0;
83024;PMS5003;72958;53.326;-1.496;2024-03-29T15:05:10;1;1;
83024;PMS5003;72958;53.326;-1.496;2024-03-29T15:08:07;0;0;
83024;PMS5003;72958;53.326;-1.496;2024-03-29T15:10:46;0;0;
83024;PMS5003;72958;53.326;-1.496;2024-03-29T15:13:17;1;1;
83024;PMS5003;72958;53.326;-1.496;2024-03-29T15:15:47;0;0;
83024;PMS5003;72958;53.326;-1.496;2024-03-29T15:20:38;2;1;
83024;PMS5003;72958;53.326;-1.496;2024-03-29T15:23:13;0;0;
83024;PMS5003;72958;53.326;-1.496;2024-03-29T15:25:50;2;1;
83024;PMS5003;72958;53.326;-1.496;2024-03-29T15:28:53;0;0;
83024;PMS5003;72958;53.326;-1.496;2024-03-29T15:31:20;3;0;
83024;PMS5003;72958;53.326;-1.496;2024-03-29T15:35:46;2;0;
83024;PMS5003;72958;53.326;-1.496;2024-03-29T15:39:04;0;0;
83024;PMS5003;72958;53.326;-1.496;2024-03-29T15:41:39;1;1;
83024;PMS5003;72958;53.326;-1.496;2024-03-29T15:45:55;1;1;
83024;PMS5003;72958;53.326;-1.496;2024-03-29T15:48:28;0;0;
83024;PMS5003;72958;53.326;-1.496;2024-03-29T15:50:59;0;0;
83024;PMS5003;72958;53.326;-1.496;2024-03-29T15:53:36;0;0;
83024;PMS5003;72958;53.326;-1.496;2024-03-29T15:56:34;0;0;
83024;PMS5003;72958;53.326;-1.496;2024-03-29T15:59:44;0;0;
83024;PMS5003;72958;53.326;-1.496;2024-03-29T16:02:46;0;0;
83024;PMS5003;72958;53.326;-1.496;2024-03-29T16:05:26;0;0;
83024;PMS5003;72958;53.326;-1.496;2024-03-29T16:08:45;0;0;
83024;PMS5003;72958;53.326;-1.496;2024-03-29T16:11:14;0;0;
83024;PMS5003;72958;53.326;-1.496;2024-03-29T16:14:26;0;0;
83024;PMS5003;72958;53.326;-1.496;2024-03-29T16:17:20;0;0;
83024;PMS5003;72958;53.326;-1.496;2024-03-29T16:20:09;0;0;
83024;PMS5003;72958;53.326;-1.496;2024-03-29T16:22:54;0;0;
83024;PMS5003;72958;53.326;-1.496;2024-03-29T16:25:33;0;0;
83024;PMS5003;72958;53.326;-1.496;2024-03-29T16:28:11;0;0;
83024;PMS5003;72958;53.326;-1.496;2024-03-29T16:31:29;0;0;
83024;PMS5003;72958;53.326;-1.496;2024-03-29T16:33:54;0;0;
83024;PMS5003;72958;53.326;-1.496;2024-03-29T16:36:21;2;1;
83024;PMS5003;72958;53.326;-1.496;2024-03-29T16:39:13;2;1;
83024;PMS5003;72958;53.326;-1.496;2024-03-29T16:41:54;2;2;
83024;PMS5003;72958;53.326;-1.496;2024-03-29T16:44:30;0;0;
83024;PMS5003;72958;53.326;-1.496;2024-03-29T16:46:57;0;0;
83024;PMS5003;72958;53.326;-1.496;2024-03-29T16:49:58;0;0;
83024;PMS5003;72958;53.326;-1.496;2024-03-29T16:52:24;1;0;
83024;PMS5003;72958;53.326;-1.496;2024-03-29T16:55:34;0;0;
83024;PMS5003;72958;53.326;-1.496;2024-03-29T16:59:00;0;0;
83024;PMS5003;72958;53.326;-1.496;2024-03-29T17:01:42;0;0;
83024;PMS5003;72958;53.326;-1.496;2024-03-29T17:04:28;0;0;
83024;PMS5003;72958;53.326;-1.496;2024-03-29T17:07:39;0;0;
83024;PMS5003;72958;53.326;-1.496;2024-03-29T17:10:37;0;0;
83024;PMS5003;72958;53.326;-1.496;2024-03-29T17:13:08;0;0;
83024;PMS5003;72958;53.326;-1.496;2024-03-29T17:15:43;0;0;
83024;PMS5003;72958;53.326;-1.496;2024-03-29T17:18:10;1;1;
83024;PMS5003;72958;53.326;-1.496;2024-03-29T17:20:43;0;0;
83024;PMS5003;72958;53.326;-1.496;2024-03-29T17:23:19;1;1;
83024;PMS5003;72958;53.326;-1.496;2024-03-29T17:25:49;0;0;
83024;PMS5003;72958;53.326;-1.496;2024-03-29T17:28:16;0;0;
83024;PMS5003;72958;53.326;-1.496;2024-03-29T17:31:10;0;0;
83024;PMS5003;72958;53.326;-1.496;2024-03-29T17:33:52;0;0;
83024;PMS5003;72958;53.326;-1.496;2024-03-29T17:36:31;0;0;
83024;PMS5003;72958;53.326;-1.496;2024-03-29T17:38:57;0;0;
83024;PMS5003;72958;53.326;-1.496;2024-03-29T17:43:22;1;1;
83024;PMS5003;72958;53.326;-1.496;2024-03-29T17:46:07;0;0;
83024;PMS5003;72958;53.326;-1.496;2024-03-29T17:48:42;0;0;
83024;PMS5003;72958;53.326;-1.496;2024-03-29T17:51:08;0;0;
83024;PMS5003;72958;53.326;-1.496;2024-03-29T17:53:34;1;1;
83024;PMS5003;72958;53.326;-1.496;2024-03-29T17:56:03;0;0;
83024;PMS5003;72958;53.326;-1.496;2024-03-29T17:58:37;0;0;
83024;PMS5003;72958;53.326;-1.496;2024-03-29T18:01:22;0;0;
83024;PMS5003;72958;53.326;-1.496;2024-03-29T18:04:27;0;0;
83024;PMS5003;72958;53.326;-1.496;2024-03-29T18:06:53;0;0;
83024;PMS5003;72958;53.326;-1.496;2024-03-29T18:09:41;0;0;
83024;PMS5003;72958;53.326;-1.496;2024-03-29T18:12:16;0;0;
83024;PMS5003;72958;53.326;-1.496;2024-03-29T18:14:46;0;0;
83024;PMS5003;72958;53.326;-1.496;2024-03-29T18:17:13;1;1;
83024;PMS5003;72958;53.326;-1.496;2024-03-29T18:19:38;0;0;
83024;PMS5003;72958;53.326;-1.496;2024-03-29T18:22:16;0;0;
83024;PMS5003;72958;53.326;-1.496;2024-03-29T18:24:41;0;0;
83024;PMS5003;72958;53.326;-1.496;2024-03-29T18:27:12;0;0;
83024;PMS5003;72958;53.326;-1.496;2024-03-29T18:30:49;0;0;
83024;PMS5003;72958;53.326;-1.496;2024-03-29T18:33:22;0;0;
83024;PMS5003;72958;53.326;-1.496;2024-03-29T18:35:47;0;0;
83024;PMS5003;72958;53.326;-1.496;2024-03-29T18:38:29;3;3;
83024;PMS5003;72958;53.326;-1.496;2024-03-29T18:41:42;0;0;
83024;PMS5003;72958;53.326;-1.496;2024-03-29T18:44:16;1;1;
83024;PMS5003;72958;53.326;-1.496;2024-03-29T18:46:59;1;1;
83024;PMS5003;72958;53.326;-1.496;2024-03-29T18:49:41;0;0;
83024;PMS5003;72958;53.326;-1.496;2024-03-29T18:52:35;0;0;
83024;PMS5003;72958;53.326;-1.496;2024-03-29T18:55:17;0;0;
83024;PMS5003;72958;53.326;-1.496;2024-03-29T18:57:43;0;0;
83024;PMS5003;72958;53.326;-1.496;2024-03-29T19:00:10;0;0;
83024;PMS5003;72958;53.326;-1.496;2024-03-29T19:02:52;1;0;